Emden — 3ERP5 — position and weather

sailwx.info

Track history (hours):
 
Tides and Currents Weather Stations Pressure Air Temp Water Temp Dewpoint Dewpoint Depression Visibility Wind Speed Wind Dir Waves Ship Positions

Emden

Last reported at 2016-Feb-13 18:32 UTC. Time now 2016-Feb-13 19:30 UTC.
Position N 38°31' W 008°52'.

Length 177 m; draft 7.5 m.

Type: Ship. MMSI: 355051000.

Date/timePositionNaut miles runAvg speedWind from/ knotsBaromVisibWave heightAir tempDewpointWater temp
2016-Feb-13 18:32N 38°31' W 008°52'0 0.0
2016-Feb-13 17:29N 38°31' W 008°52'0 0.0
2016-Feb-13 16:32N 38°31' W 008°52'0 0.0
2016-Feb-13 15:32N 38°31' W 008°52'0 0.0
2016-Feb-13 14:32N 38°31' W 008°52'0 0.0
2016-Feb-13 13:29N 38°31' W 008°52'0 0.0
2016-Feb-13 12:33N 38°31' W 008°52'5 5.4
2016-Feb-13 11:33N 38°28' W 008°58'6 6.4
2016-Feb-13 10:33N 38°23' W 009°03'7 6.6
2016-Feb-13 09:33N 38°20' W 009°11'1211.8
2016-Feb-13 08:33N 38°22' W 009°26'1313.2
2016-Feb-13 07:33N 38°27' W 009°42'1414.1
2016-Feb-13 06:33N 38°31' W 009°59'1313.3
2016-Feb-13 05:33N 38°43' W 010°06'1413.9
2016-Feb-13 04:33N 38°57' W 010°06'1514.7
2016-Feb-13 03:32N 39°12' W 010°06'1414.0
2016-Feb-13 02:32N 39°26' W 010°07'1312.6
2016-Feb-13 01:32N 39°39' W 010°07'1414.1
2016-Feb-13 00:32N 39°53' W 010°07'1414.2
2016-Feb-12 23:32N 40°07' W 010°08'1414.2
2016-Feb-12 22:32N 40°21' W 010°09'1414.0
2016-Feb-12 21:32N 40°35' W 010°08'1414.0
2016-Feb-12 20:32N 40°49' W 010°07'1413.8
2016-Feb-12 19:32N 41°03' W 010°07'1212.5
2016-Feb-12 18:32N 41°15' W 010°07'1413.8
2016-Feb-12 17:32N 41°29' W 010°07'1413.8
2016-Feb-12 16:32N 41°43' W 010°06'1413.2
2016-Feb-12 15:29N 41°57' W 010°06'55014.1
2016-Feb-11 00:31N 51°03' W 008°33'1515.8
2016-Feb-10 23:33N 51°18' W 008°29'1616.0
2016-Feb-10 22:33N 51°33' W 008°19'1514.8
2016-Feb-10 21:33N 51°48' W 008°16'3 3.4
2016-Feb-10 20:33N 51°50' W 008°20'0 0.0
2016-Feb-10 19:33N 51°50' W 008°20'0 0.0
2016-Feb-10 18:33N 51°50' W 008°20'0 0.0
2016-Feb-10 17:33N 51°50' W 008°20'0 0.0
2016-Feb-10 16:33N 51°50' W 008°20'0 0.0
2016-Feb-10 15:33N 51°50' W 008°20'0 0.0
2016-Feb-10 14:33N 51°50' W 008°20'0 0.0
2016-Feb-10 13:33N 51°50' W 008°20'0 0.0
2016-Feb-10 12:33N 51°50' W 008°20'0 0.0
2016-Feb-10 11:30N 51°50' W 008°20'0 0.0
2016-Feb-10 10:33N 51°50' W 008°20'0 0.0
2016-Feb-10 09:33N 51°50' W 008°20'0 0.0
2016-Feb-10 08:33N 51°50' W 008°20'0 0.0
2016-Feb-10 07:33N 51°50' W 008°20'0 0.0
2016-Feb-10 06:33N 51°50' W 008°20'2 2.5
2016-Feb-10 05:33N 51°51' W 008°16'8 8.2
2016-Feb-10 04:33N 51°43' W 008°14'1110.8
2016-Feb-10 03:33N 51°32' W 008°13'1211.9
2016-Feb-10 02:33N 51°20' W 008°11'1211.5
2016-Feb-10 01:33N 51°10' W 008°01'267 7.1
2016-Feb-08 12:07N 50°21' W 001°06'3 5.9
2016-Feb-08 11:32N 50°22' W 001°01'7 5.1
2016-Feb-08 10:12N 50°24' W 000°51'5 4.8
2016-Feb-08 09:14N 50°26' W 000°44'3 4.3
2016-Feb-08 08:32N 50°27' W 000°40'4 4.1
2016-Feb-08 07:30N 50°27' W 000°33'5 5.2
2016-Feb-08 06:31N 50°28' W 000°25'7 7.4
2016-Feb-08 05:32N 50°30' W 000°14'1110.7
2016-Feb-08 04:33N 50°33' E 000°02'1212.0
2016-Feb-08 03:33N 50°36' E 000°20'3310.2
2016-Feb-08 00:21N 50°53' E 001°04'6 7.7
2016-Feb-07 23:33N 50°56' E 001°12'7 7.3
2016-Feb-07 22:33N 51°01' E 001°21'8 7.8
2016-Feb-07 21:33N 51°06' E 001°31'1010.2
2016-Feb-07 20:33N 51°12' E 001°44'1313.1
2016-Feb-07 19:33N 51°23' E 001°55'1313.3
2016-Feb-07 18:33N 51°33' E 002°10'1313.0
2016-Feb-07 17:32N 51°44' E 002°21'11412.3
2016-Feb-07 08:15N 53°10' E 004°24'3312.3
2016-Feb-07 05:34N 53°35' E 005°00'1212.2
2016-Feb-07 04:34N 53°39' E 005°20'1313.1
2016-Feb-07 03:33N 53°43' E 005°41'1414.0
2016-Feb-07 02:33N 53°44' E 006°04'1312.9
2016-Feb-07 01:34N 53°37' E 006°23'1616.1
2016-Feb-07 00:33N 53°30' E 006°47'1514.7
2016-Feb-06 23:33N 53°19' E 007°04'4 4.1
2016-Feb-06 22:33N 53°20' E 007°11'0 0.0
2016-Feb-06 21:33N 53°20' E 007°11'0 0.0
2016-Feb-06 20:32N 53°20' E 007°11'0 0.0
2016-Feb-06 19:32N 53°20' E 007°11'0 0.0
2016-Feb-06 18:32N 53°20' E 007°11'0 0.0
2016-Feb-06 17:32N 53°20' E 007°11'0 0.0
2016-Feb-06 16:32N 53°20' E 007°11'0 0.0
2016-Feb-06 15:32N 53°20' E 007°11'0 0.0
2016-Feb-06 14:32N 53°20' E 007°11'0 0.0
2016-Feb-06 13:32N 53°20' E 007°11'0 0.0
2016-Feb-06 12:32N 53°20' E 007°11'0 0.0
2016-Feb-06 11:32N 53°20' E 007°11'0 0.0
2016-Feb-06 10:32N 53°20' E 007°11'0 0.0
2016-Feb-06 09:32N 53°20' E 007°11'0 0.0
2016-Feb-06 08:32N 53°20' E 007°11'0 0.0
2016-Feb-06 07:33N 53°20' E 007°11'0 0.0
2016-Feb-06 06:33N 53°20' E 007°11'0 0.0
2016-Feb-06 05:33N 53°20' E 007°11'0 0.0
2016-Feb-06 04:32N 53°20' E 007°11'0 0.0
2016-Feb-06 03:33N 53°20' E 007°11'0 0.0
2016-Feb-06 02:32N 53°20' E 007°11'0 0.1
2016-Feb-06 01:33N 53°20' E 007°11'4 4.0
2016-Feb-06 00:33N 53°20' E 007°04'10 9.8
2016-Feb-05 23:33N 53°27' E 006°53'1212.3
2016-Feb-05 22:33N 53°35' E 006°38'1111.4
2016-Feb-05 21:33N 53°39' E 006°19'2 2.3
2016-Feb-05 20:33N 53°40' E 006°16'9 8.5
2016-Feb-05 19:33N 53°40' E 006°02'1010.4
2016-Feb-05 18:34N 53°37' E 005°45'1313.1
2016-Feb-05 17:33N 53°33' E 005°24'1414.1
2016-Feb-05 16:33N 53°28' E 005°02'1813.3
2016-Feb-05 15:10N 53°17' E 004°37'915.1
2016-Feb-05 14:33N 53°09' E 004°29'1515.2
2016-Feb-05 13:33N 52°56' E 004°18'1515.1
2016-Feb-05 12:34N 52°43' E 004°03'1815.3
2016-Feb-05 11:24N 52°30' E 003°43'1315.3
2016-Feb-05 10:33N 52°22' E 003°28'1515.2
2016-Feb-05 09:33N 52°11' E 003°10'2914.4
2016-Feb-05 07:32N 51°49' E 002°40'1313.6
2016-Feb-05 06:33N 51°38' E 002°26'1313.4
2016-Feb-05 05:33N 51°28' E 002°14'1413.5
2016-Feb-05 04:33N 51°15' E 002°06'1313.1
2016-Feb-05 03:33N 51°08' E 001°48'1413.6
2016-Feb-05 02:33N 50°59' E 001°32'1513.9
2016-Feb-05 01:30N 50°45' E 001°24'7513.8
2016-Feb-04 20:03N 50°15' W 000°24'  
Track history (hours):
 
Tides and Currents Weather Stations Pressure Air Temp Water Temp Dewpoint Dewpoint Depression Visibility Wind Speed Wind Dir Waves Ship Positions

Emden

Last reported at 2016-Feb-13 18:32 UTC. Time now 2016-Feb-13 19:30 UTC.
Position N 38°31' W 008°52'.

Length 177 m; draft 7.5 m.

Type: Ship. MMSI: 355051000.

Date/timePositionNaut miles runAvg speedWind from/ knotsBaromVisibWave heightAir tempDewpointWater temp
2016-Feb-13 18:32N 38°31' W 008°52'0 0.0
2016-Feb-13 17:29N 38°31' W 008°52'0 0.0
2016-Feb-13 16:32N 38°31' W 008°52'0 0.0
2016-Feb-13 15:32N 38°31' W 008°52'0 0.0
2016-Feb-13 14:32N 38°31' W 008°52'0 0.0
2016-Feb-13 13:29N 38°31' W 008°52'0 0.0
2016-Feb-13 12:33N 38°31' W 008°52'5 5.4
2016-Feb-13 11:33N 38°28' W 008°58'6 6.4
2016-Feb-13 10:33N 38°23' W 009°03'7 6.6
2016-Feb-13 09:33N 38°20' W 009°11'1211.8
2016-Feb-13 08:33N 38°22' W 009°26'1313.2
2016-Feb-13 07:33N 38°27' W 009°42'1414.1
2016-Feb-13 06:33N 38°31' W 009°59'1313.3
2016-Feb-13 05:33N 38°43' W 010°06'1413.9
2016-Feb-13 04:33N 38°57' W 010°06'1514.7
2016-Feb-13 03:32N 39°12' W 010°06'1414.0
2016-Feb-13 02:32N 39°26' W 010°07'1312.6
2016-Feb-13 01:32N 39°39' W 010°07'1414.1
2016-Feb-13 00:32N 39°53' W 010°07'1414.2
2016-Feb-12 23:32N 40°07' W 010°08'1414.2
2016-Feb-12 22:32N 40°21' W 010°09'1414.0
2016-Feb-12 21:32N 40°35' W 010°08'1414.0
2016-Feb-12 20:32N 40°49' W 010°07'1413.8
2016-Feb-12 19:32N 41°03' W 010°07'1212.5
2016-Feb-12 18:32N 41°15' W 010°07'1413.8
2016-Feb-12 17:32N 41°29' W 010°07'1413.8
2016-Feb-12 16:32N 41°43' W 010°06'1413.2
2016-Feb-12 15:29N 41°57' W 010°06'55014.1
2016-Feb-11 00:31N 51°03' W 008°33'1515.8
2016-Feb-10 23:33N 51°18' W 008°29'1616.0
2016-Feb-10 22:33N 51°33' W 008°19'1514.8
2016-Feb-10 21:33N 51°48' W 008°16'3 3.4
2016-Feb-10 20:33N 51°50' W 008°20'0 0.0
2016-Feb-10 19:33N 51°50' W 008°20'0 0.0
2016-Feb-10 18:33N 51°50' W 008°20'0 0.0
2016-Feb-10 17:33N 51°50' W 008°20'0 0.0
2016-Feb-10 16:33N 51°50' W 008°20'0 0.0
2016-Feb-10 15:33N 51°50' W 008°20'0 0.0
2016-Feb-10 14:33N 51°50' W 008°20'0 0.0
2016-Feb-10 13:33N 51°50' W 008°20'0 0.0
2016-Feb-10 12:33N 51°50' W 008°20'0 0.0
2016-Feb-10 11:30N 51°50' W 008°20'0 0.0
2016-Feb-10 10:33N 51°50' W 008°20'0 0.0
2016-Feb-10 09:33N 51°50' W 008°20'0 0.0
2016-Feb-10 08:33N 51°50' W 008°20'0 0.0
2016-Feb-10 07:33N 51°50' W 008°20'0 0.0
2016-Feb-10 06:33N 51°50' W 008°20'2 2.5
2016-Feb-10 05:33N 51°51' W 008°16'8 8.2
2016-Feb-10 04:33N 51°43' W 008°14'1110.8
2016-Feb-10 03:33N 51°32' W 008°13'1211.9
2016-Feb-10 02:33N 51°20' W 008°11'1211.5
2016-Feb-10 01:33N 51°10' W 008°01'267 7.1
2016-Feb-08 12:07N 50°21' W 001°06'3 5.9
2016-Feb-08 11:32N 50°22' W 001°01'7 5.1
2016-Feb-08 10:12N 50°24' W 000°51'5 4.8
2016-Feb-08 09:14N 50°26' W 000°44'3 4.3
2016-Feb-08 08:32N 50°27' W 000°40'4 4.1
2016-Feb-08 07:30N 50°27' W 000°33'5 5.2
2016-Feb-08 06:31N 50°28' W 000°25'7 7.4
2016-Feb-08 05:32N 50°30' W 000°14'1110.7
2016-Feb-08 04:33N 50°33' E 000°02'1212.0
2016-Feb-08 03:33N 50°36' E 000°20'3310.2
2016-Feb-08 00:21N 50°53' E 001°04'6 7.7
2016-Feb-07 23:33N 50°56' E 001°12'7 7.3
2016-Feb-07 22:33N 51°01' E 001°21'8 7.8
2016-Feb-07 21:33N 51°06' E 001°31'1010.2
2016-Feb-07 20:33N 51°12' E 001°44'1313.1
2016-Feb-07 19:33N 51°23' E 001°55'1313.3
2016-Feb-07 18:33N 51°33' E 002°10'1313.0
2016-Feb-07 17:32N 51°44' E 002°21'11412.3
2016-Feb-07 08:15N 53°10' E 004°24'3312.3
2016-Feb-07 05:34N 53°35' E 005°00'1212.2
2016-Feb-07 04:34N 53°39' E 005°20'1313.1
2016-Feb-07 03:33N 53°43' E 005°41'1414.0
2016-Feb-07 02:33N 53°44' E 006°04'1312.9
2016-Feb-07 01:34N 53°37' E 006°23'1616.1
2016-Feb-07 00:33N 53°30' E 006°47'1514.7
2016-Feb-06 23:33N 53°19' E 007°04'4 4.1
2016-Feb-06 22:33N 53°20' E 007°11'0 0.0
2016-Feb-06 21:33N 53°20' E 007°11'0 0.0
2016-Feb-06 20:32N 53°20' E 007°11'0 0.0
2016-Feb-06 19:32N 53°20' E 007°11'0 0.0
2016-Feb-06 18:32N 53°20' E 007°11'0 0.0
2016-Feb-06 17:32N 53°20' E 007°11'0 0.0
2016-Feb-06 16:32N 53°20' E 007°11'0 0.0
2016-Feb-06 15:32N 53°20' E 007°11'0 0.0
2016-Feb-06 14:32N 53°20' E 007°11'0 0.0
2016-Feb-06 13:32N 53°20' E 007°11'0 0.0
2016-Feb-06 12:32N 53°20' E 007°11'0 0.0
2016-Feb-06 11:32N 53°20' E 007°11'0 0.0
2016-Feb-06 10:32N 53°20' E 007°11'0 0.0
2016-Feb-06 09:32N 53°20' E 007°11'0 0.0
2016-Feb-06 08:32N 53°20' E 007°11'0 0.0
2016-Feb-06 07:33N 53°20' E 007°11'0 0.0
2016-Feb-06 06:33N 53°20' E 007°11'0 0.0
2016-Feb-06 05:33N 53°20' E 007°11'0 0.0
2016-Feb-06 04:32N 53°20' E 007°11'0 0.0
2016-Feb-06 03:33N 53°20' E 007°11'0 0.0
2016-Feb-06 02:32N 53°20' E 007°11'0 0.1
2016-Feb-06 01:33N 53°20' E 007°11'4 4.0
2016-Feb-06 00:33N 53°20' E 007°04'10 9.8
2016-Feb-05 23:33N 53°27' E 006°53'1212.3
2016-Feb-05 22:33N 53°35' E 006°38'1111.4
2016-Feb-05 21:33N 53°39' E 006°19'2 2.3
2016-Feb-05 20:33N 53°40' E 006°16'9 8.5
2016-Feb-05 19:33N 53°40' E 006°02'1010.4
2016-Feb-05 18:34N 53°37' E 005°45'1313.1
2016-Feb-05 17:33N 53°33' E 005°24'1414.1
2016-Feb-05 16:33N 53°28' E 005°02'1813.3
2016-Feb-05 15:10N 53°17' E 004°37'915.1
2016-Feb-05 14:33N 53°09' E 004°29'1515.2
2016-Feb-05 13:33N 52°56' E 004°18'1515.1
2016-Feb-05 12:34N 52°43' E 004°03'1815.3
2016-Feb-05 11:24N 52°30' E 003°43'1315.3
2016-Feb-05 10:33N 52°22' E 003°28'1515.2
2016-Feb-05 09:33N 52°11' E 003°10'2914.4
2016-Feb-05 07:32N 51°49' E 002°40'1313.6
2016-Feb-05 06:33N 51°38' E 002°26'1313.4
2016-Feb-05 05:33N 51°28' E 002°14'1413.5
2016-Feb-05 04:33N 51°15' E 002°06'1313.1
2016-Feb-05 03:33N 51°08' E 001°48'1413.6
2016-Feb-05 02:33N 50°59' E 001°32'1513.9
2016-Feb-05 01:30N 50°45' E 001°24'7513.8
2016-Feb-04 20:03N 50°15' W 000°24'  

Dump ship's entire track history